createdAt,value
2024-05-09T00:00:30.806Z,12.31
2024-05-09T00:01:27.946Z,12.34
2024-05-09T00:02:25.870Z,12.33
2024-05-09T00:03:25.736Z,12.38
2024-05-09T00:04:25.713Z,12.31
2024-05-09T00:05:25.753Z,12.48
2024-05-09T00:06:25.658Z,12.36
2024-05-09T00:07:25.660Z,12.40
2024-05-09T00:08:25.718Z,12.13
2024-05-09T00:09:25.619Z,12.07
2024-05-09T00:10:33.461Z,12.21
2024-05-09T00:11:26.675Z,12.13
2024-05-09T00:12:25.811Z,12.18
2024-05-09T00:13:25.562Z,12.16
2024-05-09T00:14:25.694Z,12.13
2024-05-09T00:15:25.519Z,12.21
2024-05-09T00:16:25.488Z,12.19
2024-05-09T00:17:25.787Z,12.19
2024-05-09T00:18:25.534Z,12.22
2024-05-09T00:19:25.702Z,12.29
2024-05-09T00:20:33.228Z,12.19
2024-05-09T00:21:26.416Z,12.30
2024-05-09T00:22:25.407Z,12.19
2024-05-09T00:23:25.506Z,12.11
2024-05-09T00:24:25.363Z,12.01
2024-05-09T00:25:25.354Z,12.13
2024-05-09T00:26:25.365Z,12.22
2024-05-09T00:27:25.319Z,12.11
2024-05-09T00:28:25.311Z,12.18
2024-05-09T00:29:25.424Z,12.12
2024-05-09T00:30:33.220Z,12.11
2024-05-09T00:31:26.250Z,12.19
2024-05-09T00:32:25.462Z,12.23
2024-05-09T00:33:25.472Z,12.16
2024-05-09T00:34:25.286Z,12.16
2024-05-09T00:35:25.315Z,12.19
2024-05-09T00:36:25.158Z,12.13
2024-05-09T00:37:25.147Z,12.15
2024-05-09T00:38:25.210Z,12.16
2024-05-09T00:39:25.099Z,12.26
2024-05-09T00:40:35.110Z,12.12
2024-05-09T00:41:27.130Z,12.22
2024-05-09T00:42:25.071Z,12.22
2024-05-09T00:43:25.048Z,12.30
2024-05-09T00:44:25.155Z,12.21
2024-05-09T00:45:25.011Z,12.11
2024-05-09T00:46:24.995Z,12.22
2024-05-09T00:47:25.229Z,12.12
2024-05-09T00:48:25.055Z,12.26
2024-05-09T00:49:25.148Z,12.05
2024-05-09T00:50:33.801Z,12.21
2024-05-09T00:51:26.908Z,12.21
2024-05-09T00:52:51.340Z,12.15
2024-05-09T00:53:24.941Z,12.21
2024-05-09T00:54:24.876Z,12.21
2024-05-09T00:55:24.828Z,12.23
2024-05-09T00:56:24.900Z,12.19
2024-05-09T00:57:24.798Z,12.15
2024-05-09T00:58:24.785Z,12.07
2024-05-09T00:59:24.958Z,12.12
2024-05-09T01:00:31.594Z,12.00
2024-05-09T01:01:26.812Z,12.03
2024-05-09T01:02:24.833Z,12.00
2024-05-09T01:03:24.986Z,12.05
2024-05-09T01:04:24.855Z,12.03
2024-05-09T01:05:24.756Z,12.05
2024-05-09T01:06:24.651Z,12.08
2024-05-09T01:07:24.633Z,12.00
2024-05-09T01:08:24.932Z,12.08
2024-05-09T01:09:24.584Z,12.00
2024-05-09T01:10:32.206Z,12.05
2024-05-09T01:11:25.619Z,12.07
2024-05-09T01:12:24.725Z,12.05
2024-05-09T01:13:24.536Z,11.96
2024-05-09T01:14:24.637Z,11.98
2024-05-09T01:15:24.527Z,12.08
2024-05-09T01:16:24.481Z,12.01
2024-05-09T01:17:24.558Z,12.07
2024-05-09T01:18:24.558Z,11.98
2024-05-09T01:19:24.568Z,11.96
2024-05-09T01:20:32.141Z,11.97
2024-05-09T01:21:26.442Z,11.94
2024-05-09T01:22:24.372Z,11.87
2024-05-09T01:23:24.378Z,11.93
2024-05-09T01:24:24.334Z,11.96
2024-05-09T01:25:24.326Z,11.90
2024-05-09T01:26:24.406Z,11.98
2024-05-09T01:27:24.284Z,11.87
2024-05-09T01:28:24.272Z,11.87
2024-05-09T01:29:24.410Z,11.85
2024-05-09T01:30:31.723Z,11.87
2024-05-09T01:31:26.233Z,11.84
2024-05-09T01:32:24.300Z,11.87
2024-05-09T01:33:24.359Z,11.69
2024-05-09T01:34:24.184Z,11.79
2024-05-09T01:35:24.284Z,11.70
2024-05-09T01:36:24.263Z,11.72
2024-05-09T01:37:24.128Z,11.70
2024-05-09T01:38:24.146Z,11.69
2024-05-09T01:39:24.096Z,11.77
2024-05-09T01:40:33.455Z,11.62
2024-05-09T01:41:26.108Z,11.56
2024-05-09T01:42:24.045Z,11.54
2024-05-09T01:43:24.031Z,11.62
2024-05-09T01:44:24.163Z,11.57
2024-05-09T01:45:24.012Z,11.57
2024-05-09T01:46:23.972Z,11.57
2024-05-09T01:47:24.130Z,11.62
2024-05-09T01:48:24.182Z,11.59
2024-05-09T01:49:24.160Z,11.60
2024-05-09T01:50:35.755Z,11.60
2024-05-09T01:51:25.911Z,11.56
2024-05-09T01:52:23.913Z,11.53
2024-05-09T01:53:23.916Z,11.49
2024-05-09T01:54:23.849Z,11.53
2024-05-09T01:55:23.816Z,11.57
2024-05-09T01:56:23.867Z,11.54
2024-05-09T01:57:23.835Z,11.56
2024-05-09T01:58:23.786Z,11.51
2024-05-09T01:59:23.773Z,11.49
2024-05-09T02:00:33.757Z,11.44
2024-05-09T02:01:25.752Z,11.41
2024-05-09T02:02:23.818Z,11.38
2024-05-09T02:03:23.875Z,11.48
2024-05-09T02:04:23.892Z,11.45
2024-05-09T02:05:23.750Z,11.44
2024-05-09T02:06:23.642Z,11.35
2024-05-09T02:07:23.616Z,11.30
2024-05-09T02:08:23.707Z,11.20
2024-05-09T02:09:23.602Z,11.23
2024-05-09T02:10:30.323Z,11.09
2024-05-09T02:11:24.672Z,11.17
2024-05-09T02:12:23.656Z,11.20
2024-05-09T02:13:23.559Z,11.11
2024-05-09T02:14:23.628Z,11.12
2024-05-09T02:15:23.484Z,11.08
2024-05-09T02:16:23.489Z,11.06
2024-05-09T02:17:23.596Z,11.09
2024-05-09T02:18:23.705Z,11.05
2024-05-09T02:19:23.649Z,10.99
2024-05-09T02:20:30.692Z,10.98
2024-05-09T02:21:25.399Z,11.06
2024-05-09T02:22:23.375Z,10.98
2024-05-09T02:23:23.395Z,10.90
2024-05-09T02:24:23.349Z,10.91
2024-05-09T02:25:23.323Z,10.99
2024-05-09T02:26:23.449Z,10.98
2024-05-09T02:27:23.292Z,10.88
2024-05-09T02:28:23.289Z,11.02
2024-05-09T02:29:23.317Z,10.95
2024-05-09T02:30:30.718Z,11.09
2024-05-09T02:31:24.218Z,10.95
2024-05-09T02:32:23.304Z,11.02
2024-05-09T02:33:23.657Z,11.05
2024-05-09T02:34:23.486Z,11.02
2024-05-09T02:35:23.260Z,11.03
2024-05-09T02:36:23.144Z,11.12
2024-05-09T02:37:23.140Z,11.02
2024-05-09T02:38:23.177Z,11.11
2024-05-09T02:39:23.137Z,11.02
2024-05-09T02:40:32.985Z,11.06
2024-05-09T02:41:25.984Z,10.91
2024-05-09T02:42:23.098Z,10.94
2024-05-09T02:43:23.027Z,10.99
2024-05-09T02:44:23.102Z,10.99
2024-05-09T02:45:23.008Z,10.84
2024-05-09T02:46:22.987Z,10.86
2024-05-09T02:47:23.196Z,10.75
2024-05-09T02:48:23.111Z,10.68
2024-05-09T02:49:23.040Z,10.78
2024-05-09T02:50:29.087Z,10.78
2024-05-09T02:51:24.897Z,10.76
2024-05-09T02:52:22.877Z,10.63
2024-05-09T02:53:22.944Z,10.68
2024-05-09T02:54:22.836Z,10.69
2024-05-09T02:55:23.881Z,10.68
2024-05-09T02:56:22.899Z,10.62
2024-05-09T02:57:22.800Z,10.68
2024-05-09T02:58:22.764Z,10.57
2024-05-09T02:59:23.895Z,10.63
2024-05-09T03:00:26.712Z,10.66
2024-05-09T03:01:24.785Z,10.68
2024-05-09T03:02:22.809Z,10.63
2024-05-09T03:03:23.032Z,10.58
2024-05-09T03:04:22.705Z,10.58
2024-05-09T03:05:22.792Z,10.60
2024-05-09T03:06:22.680Z,10.55
2024-05-09T03:07:22.664Z,10.44
2024-05-09T03:08:22.729Z,10.44
2024-05-09T03:09:22.581Z,10.46
2024-05-09T03:10:28.290Z,10.44
2024-05-09T03:11:23.679Z,10.51
2024-05-09T03:12:22.670Z,10.47
2024-05-09T03:13:22.528Z,10.57
2024-05-09T03:14:22.597Z,10.51
2024-05-09T03:15:22.517Z,10.39
2024-05-09T03:16:22.484Z,10.43
2024-05-09T03:17:22.587Z,10.44
2024-05-09T03:18:22.640Z,10.42
2024-05-09T03:19:22.698Z,10.52
2024-05-09T03:20:27.374Z,10.46
2024-05-09T03:21:24.393Z,10.52
2024-05-09T03:22:22.398Z,10.46
2024-05-09T03:23:22.422Z,10.52
2024-05-09T03:24:22.366Z,10.52
2024-05-09T03:25:22.326Z,10.54
2024-05-09T03:26:22.406Z,10.52
2024-05-09T03:27:22.321Z,10.52
2024-05-09T03:28:22.259Z,10.49
2024-05-09T03:29:22.301Z,10.54
2024-05-09T03:30:30.673Z,10.49
2024-05-09T03:31:22.238Z,10.44
2024-05-09T03:32:22.338Z,10.51
2024-05-09T03:33:22.746Z,10.52
2024-05-09T03:34:22.219Z,10.51
2024-05-09T03:35:22.243Z,10.58
2024-05-09T03:36:22.143Z,10.52
2024-05-09T03:37:22.124Z,10.34
2024-05-09T03:38:22.198Z,10.43
2024-05-09T03:39:22.085Z,10.43
2024-05-09T03:40:26.391Z,10.29
2024-05-09T03:41:23.198Z,10.32
2024-05-09T03:42:22.041Z,10.24
2024-05-09T03:43:22.042Z,10.22
2024-05-09T03:44:22.054Z,10.28
2024-05-09T03:45:22.002Z,10.24
2024-05-09T03:46:21.971Z,10.25
2024-05-09T03:47:22.107Z,10.31
2024-05-09T03:48:22.174Z,10.32
2024-05-09T03:49:22.310Z,10.32
2024-05-09T03:50:29.849Z,10.31
2024-05-09T03:51:23.896Z,10.35
2024-05-09T03:52:21.880Z,10.51
2024-05-09T03:53:21.962Z,10.44
2024-05-09T03:54:21.852Z,10.46
2024-05-09T03:55:22.820Z,10.60
2024-05-09T03:56:21.840Z,10.62
2024-05-09T03:57:21.805Z,10.66
2024-05-09T03:58:21.777Z,10.81
2024-05-09T03:59:21.829Z,10.88
2024-05-09T04:00:30.014Z,10.81
2024-05-09T04:01:23.917Z,10.86
2024-05-09T04:02:21.818Z,10.95
2024-05-09T04:03:21.904Z,11.03
2024-05-09T04:04:21.745Z,11.17
2024-05-09T04:05:21.709Z,11.23
2024-05-09T04:06:21.648Z,11.31
2024-05-09T04:07:21.635Z,11.24
2024-05-09T04:08:21.653Z,11.30
2024-05-09T04:09:21.583Z,11.33
2024-05-09T04:10:30.180Z,11.33
2024-05-09T04:11:21.649Z,11.28
2024-05-09T04:12:21.571Z,11.30
2024-05-09T04:13:21.541Z,11.39
2024-05-09T04:14:21.613Z,11.45
2024-05-09T04:15:21.532Z,11.41
2024-05-09T04:16:21.472Z,11.46
2024-05-09T04:17:21.481Z,11.41
2024-05-09T04:18:21.550Z,11.46
2024-05-09T04:19:21.692Z,11.45
2024-05-09T04:20:32.481Z,11.45
2024-05-09T04:21:22.389Z,11.62
2024-05-09T04:22:21.421Z,11.57
2024-05-09T04:23:21.395Z,11.64
2024-05-09T04:24:21.356Z,11.69
2024-05-09T04:25:21.377Z,11.75
2024-05-09T04:26:21.382Z,11.93
2024-05-09T04:27:21.414Z,12.04
2024-05-09T04:28:21.436Z,12.03
2024-05-09T04:29:21.334Z,12.25
2024-05-09T04:30:30.221Z,12.22
2024-05-09T04:31:23.206Z,12.48
2024-05-09T04:32:21.504Z,12.62
2024-05-09T04:33:21.419Z,12.79
2024-05-09T04:34:21.441Z,12.85
2024-05-09T04:35:21.248Z,12.88
2024-05-09T04:36:21.126Z,12.96
2024-05-09T04:37:21.131Z,13.03
2024-05-09T04:38:21.133Z,12.88
2024-05-09T04:39:21.096Z,12.92
2024-05-09T04:40:28.515Z,12.87
2024-05-09T04:41:22.098Z,12.69
2024-05-09T04:42:21.033Z,12.67
2024-05-09T04:43:21.026Z,12.67
2024-05-09T04:44:21.091Z,12.76
2024-05-09T04:45:21.009Z,12.95
2024-05-09T04:46:20.983Z,13.04
2024-05-09T04:47:21.064Z,13.36
2024-05-09T04:48:21.105Z,13.72
2024-05-09T04:49:20.985Z,13.99
2024-05-09T04:50:29.395Z,14.26
2024-05-09T04:51:22.904Z,14.42
2024-05-09T04:52:20.861Z,14.38
2024-05-09T04:53:20.868Z,14.36
2024-05-09T04:54:33.498Z,14.27
2024-05-09T04:55:22.820Z,14.26
2024-05-09T04:56:20.871Z,14.26
2024-05-09T04:57:20.787Z,14.46
2024-05-09T04:58:20.779Z,14.71
2024-05-09T04:59:20.808Z,15.18
2024-05-09T05:00:28.603Z,15.77
2024-05-09T05:01:22.778Z,16.33
2024-05-09T05:02:20.735Z,16.87
2024-05-09T05:03:20.976Z,17.45
2024-05-09T05:04:20.728Z,17.96
2024-05-09T05:05:20.658Z,18.47
2024-05-09T05:06:20.652Z,18.89
2024-05-09T05:07:20.636Z,19.25
2024-05-09T05:08:20.631Z,19.65
2024-05-09T05:09:20.602Z,20.00
2024-05-09T05:10:25.513Z,20.20
2024-05-09T05:11:22.641Z,20.53
2024-05-09T05:12:20.635Z,20.68
2024-05-09T05:13:21.824Z,20.82
2024-05-09T05:14:20.687Z,20.94
2024-05-09T05:15:20.488Z,20.91
2024-05-09T05:16:20.466Z,21.08
2024-05-09T05:17:20.631Z,21.13
2024-05-09T05:18:20.654Z,21.12
2024-05-09T05:19:20.523Z,21.09
2024-05-09T05:20:27.465Z,21.18
2024-05-09T05:21:22.519Z,21.18
2024-05-09T05:22:20.438Z,21.36
2024-05-09T05:23:20.552Z,21.67
2024-05-09T05:24:20.322Z,21.53
2024-05-09T05:25:20.305Z,21.64
2024-05-09T05:26:20.533Z,21.77
2024-05-09T05:27:20.330Z,21.82
2024-05-09T05:28:20.289Z,21.93
2024-05-09T05:29:21.004Z,22.01
2024-05-09T05:30:25.488Z,22.27
2024-05-09T05:31:21.312Z,22.36
2024-05-09T05:32:20.469Z,22.49
2024-05-09T05:33:20.785Z,22.72
2024-05-09T05:34:20.149Z,22.99
2024-05-09T05:35:20.185Z,23.16
2024-05-09T05:36:20.122Z,23.12
2024-05-09T05:37:20.108Z,23.09
2024-05-09T05:38:22.824Z,22.70
2024-05-09T05:39:20.176Z,22.63
2024-05-09T05:40:28.185Z,22.84
2024-05-09T05:41:22.056Z,23.03
2024-05-09T05:42:20.027Z,23.06
2024-05-09T05:43:20.146Z,23.19
2024-05-09T05:44:20.126Z,23.38
2024-05-09T05:45:19.974Z,23.59
2024-05-09T05:46:19.959Z,23.78
2024-05-09T05:47:20.148Z,23.79
2024-05-09T05:48:20.067Z,24.11
2024-05-09T05:49:20.134Z,24.24
2024-05-09T05:50:27.424Z,24.42
2024-05-09T05:51:21.949Z,24.67
2024-05-09T05:52:19.853Z,24.94
2024-05-09T05:53:19.874Z,25.09
2024-05-09T05:54:19.864Z,25.04
2024-05-09T05:55:19.788Z,24.94
2024-05-09T05:56:19.911Z,24.94
2024-05-09T05:57:19.766Z,25.26
2024-05-09T05:58:19.764Z,25.45
2024-05-09T05:59:19.807Z,25.53
2024-05-09T06:00:29.227Z,25.64
2024-05-09T06:01:21.776Z,25.82
2024-05-09T06:02:19.747Z,25.81
2024-05-09T06:03:19.717Z,26.01
2024-05-09T06:04:19.694Z,26.19
2024-05-09T06:05:19.712Z,26.38
2024-05-09T06:06:19.622Z,26.46
2024-05-09T06:07:19.626Z,26.46
2024-05-09T06:08:19.659Z,26.50
2024-05-09T06:09:19.573Z,26.50
2024-05-09T06:10:25.423Z,26.47
2024-05-09T06:11:21.650Z,26.41
2024-05-09T06:12:19.667Z,26.39
2024-05-09T06:13:19.511Z,26.44
2024-05-09T06:14:19.607Z,26.36
2024-05-09T06:15:19.528Z,26.44
2024-05-09T06:16:19.477Z,26.38
2024-05-09T06:17:19.558Z,26.31
2024-05-09T06:18:19.789Z,26.23
2024-05-09T06:19:19.683Z,26.09
2024-05-09T06:20:24.050Z,26.03
2024-05-09T06:21:21.491Z,26.00
2024-05-09T06:22:19.366Z,26.17
2024-05-09T06:23:19.407Z,26.23
2024-05-09T06:24:19.344Z,26.46
2024-05-09T06:25:19.426Z,26.84
2024-05-09T06:26:19.475Z,27.03
2024-05-09T06:27:19.310Z,27.09
2024-05-09T06:28:19.272Z,27.31
2024-05-09T06:29:19.397Z,27.66
2024-05-09T06:30:25.469Z,27.81
2024-05-09T06:31:21.263Z,27.78
2024-05-09T06:32:19.292Z,27.69
2024-05-09T06:33:19.493Z,27.78
2024-05-09T06:34:19.362Z,27.91
2024-05-09T06:35:19.254Z,27.88
2024-05-09T06:36:19.298Z,28.02
2024-05-09T06:37:19.171Z,28.14
2024-05-09T06:38:19.159Z,28.25
2024-05-09T06:39:19.130Z,28.45
2024-05-09T06:40:25.483Z,28.76
2024-05-09T06:41:21.154Z,28.92
2024-05-09T06:42:19.141Z,28.98
2024-05-09T06:43:19.874Z,28.76
2024-05-09T06:44:19.085Z,28.64
2024-05-09T06:45:19.062Z,29.03
2024-05-09T06:46:19.000Z,29.52
2024-05-09T06:47:19.050Z,29.94
2024-05-09T06:48:19.753Z,29.97
2024-05-09T06:49:19.174Z,29.86
2024-05-09T06:50:23.962Z,29.47
2024-05-09T06:51:21.011Z,29.48
2024-05-09T06:52:51.388Z,29.71
2024-05-09T06:53:18.976Z,30.03
2024-05-09T06:54:18.879Z,30.29
2024-05-09T06:55:18.871Z,30.34
2024-05-09T06:56:18.892Z,30.40
2024-05-09T06:57:18.852Z,30.61
2024-05-09T06:58:18.864Z,30.70
2024-05-09T06:59:18.872Z,30.61
2024-05-09T07:00:27.240Z,30.67
2024-05-09T07:01:20.898Z,30.75
2024-05-09T07:02:18.891Z,30.85
2024-05-09T07:03:19.690Z,31.01
2024-05-09T07:04:18.835Z,30.85
2024-05-09T07:05:18.881Z,30.85
2024-05-09T07:06:18.734Z,31.00
2024-05-09T07:07:18.731Z,31.01
2024-05-09T07:08:19.053Z,31.49
2024-05-09T07:09:18.706Z,31.60
2024-05-09T07:10:25.599Z,31.65
2024-05-09T07:11:19.784Z,31.88
2024-05-09T07:12:18.784Z,32.05
2024-05-09T07:13:18.638Z,32.02
2024-05-09T07:14:18.811Z,32.21
2024-05-09T07:15:18.566Z,32.09
2024-05-09T07:16:18.584Z,32.10
2024-05-09T07:17:18.607Z,32.02
2024-05-09T07:18:19.648Z,31.90
2024-05-09T07:19:18.768Z,31.72
2024-05-09T07:20:23.751Z,31.65
2024-05-09T07:21:20.558Z,31.74
2024-05-09T07:22:18.468Z,31.16
2024-05-09T07:23:18.754Z,30.72
2024-05-09T07:24:18.467Z,30.72
2024-05-09T07:25:18.437Z,30.90
2024-05-09T07:26:18.556Z,31.37
2024-05-09T07:27:18.411Z,31.78
2024-05-09T07:28:18.582Z,31.82
2024-05-09T07:29:18.463Z,31.62
2024-05-09T07:30:23.582Z,31.53
2024-05-09T07:31:20.370Z,31.57
2024-05-09T07:32:18.429Z,31.32
2024-05-09T07:33:18.775Z,31.40
2024-05-09T07:34:18.441Z,31.60
2024-05-09T07:35:18.343Z,31.85
2024-05-09T07:36:18.266Z,32.03
2024-05-09T07:37:18.263Z,32.19
2024-05-09T07:38:18.342Z,32.36
2024-05-09T07:39:18.255Z,32.50
2024-05-09T07:40:28.197Z,32.77
2024-05-09T07:41:20.326Z,32.56
2024-05-09T07:42:18.191Z,32.59
2024-05-09T07:43:18.188Z,32.61
2024-05-09T07:44:18.214Z,32.58
2024-05-09T07:45:39.661Z,32.76
2024-05-09T07:48:29.079Z,32.69
2024-05-09T07:53:38.389Z,32.22
2024-05-09T07:54:20.226Z,32.22
2024-05-09T07:55:18.376Z,31.88
2024-05-09T07:56:19.110Z,31.76
2024-05-09T07:57:18.164Z,32.13
2024-05-09T07:58:18.033Z,31.92
2024-05-09T07:59:18.012Z,32.05
2024-05-09T08:00:23.702Z,32.05
2024-05-09T08:01:19.390Z,32.09
2024-05-09T08:02:18.042Z,31.94
2024-05-09T08:03:18.098Z,31.94
2024-05-09T08:04:18.161Z,32.05
2024-05-09T08:05:17.993Z,31.79
2024-05-09T08:06:17.878Z,31.47
2024-05-09T08:07:17.909Z,31.45
2024-05-09T08:08:17.857Z,31.78
2024-05-09T08:09:21.132Z,32.02
2024-05-09T08:10:22.174Z,32.40
2024-05-09T08:11:19.847Z,32.81
2024-05-09T08:12:17.794Z,32.03
2024-05-09T08:13:17.833Z,31.62
2024-05-09T08:14:17.785Z,31.54
2024-05-09T08:15:17.810Z,31.49
2024-05-09T08:16:17.739Z,31.28
2024-05-09T08:17:17.746Z,31.23
2024-05-09T08:18:17.916Z,31.88
2024-05-09T08:19:17.790Z,32.12
2024-05-09T08:20:26.643Z,32.49
2024-05-09T08:21:19.704Z,32.32
2024-05-09T08:22:17.686Z,32.50
2024-05-09T08:23:17.651Z,32.71
2024-05-09T08:24:17.663Z,32.73
2024-05-09T08:25:17.768Z,32.80
2024-05-09T08:26:17.609Z,33.06
2024-05-09T08:27:17.569Z,32.78
2024-05-09T08:28:17.824Z,32.84
2024-05-09T08:29:17.588Z,33.15
2024-05-09T08:30:24.746Z,33.29
2024-05-09T08:31:19.657Z,33.18
2024-05-09T08:32:17.536Z,32.95
2024-05-09T08:33:17.655Z,32.99
2024-05-09T08:34:17.628Z,33.21
2024-05-09T08:35:17.465Z,33.37
2024-05-09T08:36:17.468Z,33.41
2024-05-09T08:37:22.450Z,33.47
2024-05-09T08:38:19.437Z,33.55
2024-05-09T08:39:17.458Z,33.56
2024-05-09T08:40:24.069Z,33.47
2024-05-09T08:41:18.423Z,33.44
2024-05-09T08:42:17.389Z,33.45
2024-05-09T08:43:17.452Z,33.43
2024-05-09T08:44:17.376Z,33.50
2024-05-09T08:45:17.387Z,33.43
2024-05-09T08:46:17.436Z,33.47
2024-05-09T08:47:17.329Z,33.53
2024-05-09T08:48:17.418Z,33.82
2024-05-09T08:49:17.384Z,33.99
2024-05-09T08:50:28.723Z,34.16
2024-05-09T08:51:19.277Z,33.78
2024-05-09T08:52:17.296Z,33.49
2024-05-09T08:53:17.222Z,33.00
2024-05-09T08:54:17.204Z,32.77
2024-05-09T08:55:17.265Z,32.90
2024-05-09T08:56:17.175Z,32.98
2024-05-09T08:57:17.201Z,33.00
2024-05-09T08:58:17.388Z,33.34
2024-05-09T08:59:17.210Z,33.44
2024-05-09T09:00:25.804Z,33.29
2024-05-09T09:01:18.187Z,33.38
2024-05-09T09:02:17.522Z,33.41
2024-05-09T09:03:17.127Z,33.53
2024-05-09T09:04:17.292Z,33.35
2024-05-09T09:05:17.263Z,33.09
2024-05-09T09:06:17.027Z,32.99
2024-05-09T09:07:17.122Z,32.95
2024-05-09T09:08:17.030Z,32.63
2024-05-09T09:09:17.003Z,32.09
2024-05-09T09:10:25.381Z,32.12
2024-05-09T09:11:18.987Z,32.07
2024-05-09T09:12:16.944Z,31.87
2024-05-09T09:13:17.059Z,31.95
2024-05-09T09:14:16.946Z,32.13
2024-05-09T09:15:16.957Z,32.44
2024-05-09T09:16:17.015Z,32.95
2024-05-09T09:17:16.908Z,32.53
2024-05-09T09:18:17.169Z,32.28
2024-05-09T09:19:17.127Z,32.41
2024-05-09T09:20:23.219Z,31.95
2024-05-09T09:21:17.834Z,31.94
2024-05-09T09:22:16.947Z,32.05
2024-05-09T09:23:16.901Z,31.65
2024-05-09T09:24:16.809Z,31.82
2024-05-09T09:25:16.822Z,31.50
2024-05-09T09:26:16.747Z,31.03
2024-05-09T09:27:17.757Z,31.45
2024-05-09T09:28:16.780Z,31.28
2024-05-09T09:29:16.733Z,31.19
2024-05-09T09:30:30.812Z,31.15
2024-05-09T09:31:18.785Z,30.82
2024-05-09T09:32:16.759Z,30.97
2024-05-09T09:33:16.753Z,31.38
2024-05-09T09:34:16.821Z,31.65
2024-05-09T09:35:16.646Z,31.87
2024-05-09T09:36:16.639Z,31.67
2024-05-09T09:37:16.648Z,31.90
2024-05-09T09:38:16.648Z,31.99
2024-05-09T09:39:16.661Z,31.79
2024-05-09T09:40:18.421Z,31.35
2024-05-09T09:41:16.593Z,31.18
2024-05-09T09:42:16.578Z,31.03
2024-05-09T09:43:16.598Z,31.10
2024-05-09T09:44:16.592Z,31.60
2024-05-09T09:45:16.542Z,31.42
2024-05-09T09:46:16.645Z,31.49
2024-05-09T09:47:17.511Z,31.60
2024-05-09T09:48:16.609Z,31.91
2024-05-09T09:49:16.645Z,31.60
2024-05-09T09:50:20.486Z,31.00
2024-05-09T09:51:18.464Z,30.66
2024-05-09T09:52:16.487Z,30.68
2024-05-09T09:53:17.419Z,30.73
2024-05-09T09:54:16.386Z,30.85
2024-05-09T09:55:16.562Z,31.37
2024-05-09T09:56:16.390Z,31.92
2024-05-09T09:57:16.346Z,32.28
2024-05-09T09:58:16.415Z,32.50
2024-05-09T09:59:16.304Z,32.59
2024-05-09T10:01:17.443Z,33.15
2024-05-09T10:02:16.510Z,33.28
2024-05-09T10:03:16.301Z,33.41
2024-05-09T10:04:16.353Z,33.60
2024-05-09T10:05:16.361Z,33.72
2024-05-09T10:06:16.272Z,33.78
2024-05-09T10:07:16.274Z,33.45
2024-05-09T10:08:16.247Z,33.35
2024-05-09T10:09:16.166Z,33.03
2024-05-09T10:10:20.069Z,32.68
2024-05-09T10:11:17.225Z,31.90
2024-05-09T10:12:16.223Z,31.79
2024-05-09T10:13:16.412Z,31.07
2024-05-09T10:14:16.102Z,30.94
2024-05-09T10:15:16.093Z,30.91
2024-05-09T10:16:16.143Z,31.12
2024-05-09T10:17:16.080Z,31.18
2024-05-09T10:18:16.441Z,31.15
2024-05-09T10:19:16.199Z,31.47
2024-05-09T10:20:21.841Z,31.75
2024-05-09T10:21:18.104Z,31.72
2024-05-09T10:22:16.206Z,31.67
2024-05-09T10:23:16.295Z,31.19
2024-05-09T10:24:15.935Z,30.85
2024-05-09T10:25:16.150Z,30.68
2024-05-09T10:26:16.005Z,30.94
2024-05-09T10:27:15.941Z,31.16
2024-05-09T10:28:16.020Z,31.31
2024-05-09T10:29:15.976Z,31.31
2024-05-09T10:30:25.315Z,31.47
2024-05-09T10:31:17.973Z,31.13
2024-05-09T10:32:15.975Z,30.93
2024-05-09T10:33:16.067Z,30.54
2024-05-09T10:34:16.156Z,29.57
2024-05-09T10:35:15.857Z,28.85
2024-05-09T10:36:15.792Z,28.60
2024-05-09T10:37:15.948Z,28.40
2024-05-09T10:38:15.759Z,28.23
2024-05-09T10:39:15.770Z,28.08
2024-05-09T10:40:23.338Z,27.83
2024-05-09T10:41:17.709Z,27.62
2024-05-09T10:42:15.723Z,27.12
2024-05-09T10:43:15.733Z,26.79
2024-05-09T10:44:15.694Z,26.23
2024-05-09T10:45:15.652Z,26.09
2024-05-09T10:46:15.902Z,26.27
2024-05-09T10:47:15.757Z,26.28
2024-05-09T10:48:15.698Z,26.21
2024-05-09T10:49:15.726Z,26.09
2024-05-09T10:50:22.429Z,26.13
2024-05-09T10:51:17.572Z,26.12
2024-05-09T10:52:16.790Z,26.21
2024-05-09T10:53:15.540Z,26.36
2024-05-09T10:54:15.551Z,26.29
2024-05-09T10:55:15.528Z,26.17
2024-05-09T10:56:15.511Z,26.03
2024-05-09T10:57:15.498Z,26.01
2024-05-09T10:58:15.572Z,26.03
2024-05-09T10:59:15.478Z,25.97
2024-05-09T11:00:23.343Z,25.81
2024-05-09T11:01:17.551Z,25.64
2024-05-09T11:02:15.574Z,25.20
2024-05-09T11:03:15.458Z,25.01
2024-05-09T11:04:15.442Z,25.04
2024-05-09T11:05:15.513Z,25.07
2024-05-09T11:06:15.354Z,25.14
2024-05-09T11:07:15.382Z,25.34
2024-05-09T11:08:15.340Z,25.34
2024-05-09T11:09:16.297Z,25.45
2024-05-09T11:10:20.714Z,25.42
2024-05-09T11:11:16.351Z,25.23
2024-05-09T11:12:15.298Z,24.98
2024-05-09T11:13:15.336Z,24.77
2024-05-09T11:14:15.218Z,24.64
2024-05-09T11:15:15.247Z,24.60
2024-05-09T11:16:15.313Z,24.70
2024-05-09T11:17:15.219Z,24.42
2024-05-09T11:18:15.280Z,24.11
2024-05-09T11:19:15.443Z,23.94
2024-05-09T11:20:22.732Z,23.68
2024-05-09T11:21:17.107Z,23.53
2024-05-09T11:22:15.215Z,23.57
2024-05-09T11:23:15.072Z,23.57
2024-05-09T11:24:15.074Z,23.39
2024-05-09T11:25:15.149Z,23.34
2024-05-09T11:26:15.005Z,23.31
2024-05-09T11:27:15.027Z,23.19
2024-05-09T11:28:15.194Z,23.09
2024-05-09T11:29:17.946Z,23.09
2024-05-09T11:30:23.778Z,23.18
2024-05-09T11:31:17.200Z,23.37
2024-05-09T11:32:14.986Z,23.50
2024-05-09T11:33:14.995Z,23.44
2024-05-09T11:34:14.964Z,23.41
2024-05-09T11:35:14.878Z,23.39
2024-05-09T11:36:14.866Z,23.18
2024-05-09T11:37:15.038Z,23.12
2024-05-09T11:38:14.838Z,23.18
2024-05-09T11:39:15.016Z,23.34
2024-05-09T11:40:21.391Z,23.45
2024-05-09T11:41:16.800Z,23.68
2024-05-09T11:42:14.766Z,23.64
2024-05-09T11:43:14.869Z,23.78
2024-05-09T11:44:14.727Z,23.74
2024-05-09T11:45:14.754Z,23.82
2024-05-09T11:46:14.911Z,23.62
2024-05-09T11:47:14.740Z,23.62
2024-05-09T11:48:14.808Z,23.56
2024-05-09T11:49:14.763Z,23.53
2024-05-09T11:50:22.530Z,23.45
2024-05-09T11:51:16.634Z,23.32
2024-05-09T11:52:14.630Z,23.22
2024-05-09T11:53:14.582Z,22.88
2024-05-09T11:54:14.571Z,22.78
2024-05-09T11:55:14.782Z,22.66
2024-05-09T11:56:14.560Z,22.61
2024-05-09T11:57:14.516Z,22.67
2024-05-09T11:58:14.599Z,22.63
2024-05-09T11:59:14.509Z,22.74
2024-05-09T12:00:20.782Z,22.52
2024-05-09T12:01:16.531Z,22.36
2024-05-09T12:02:14.602Z,22.29
2024-05-09T12:03:14.568Z,22.41
2024-05-09T12:04:14.698Z,22.46
2024-05-09T12:05:14.550Z,22.61
2024-05-09T12:06:14.432Z,22.84
2024-05-09T12:07:14.393Z,22.84
2024-05-09T12:08:14.414Z,22.69
2024-05-09T12:09:14.415Z,22.46
2024-05-09T12:10:19.591Z,22.49
2024-05-09T12:11:15.406Z,22.29
2024-05-09T12:12:14.271Z,22.14
2024-05-09T12:13:14.310Z,22.02
2024-05-09T12:14:14.288Z,21.90
2024-05-09T12:15:14.210Z,21.86
2024-05-09T12:16:14.407Z,21.73
2024-05-09T12:17:14.264Z,21.66
2024-05-09T12:18:14.278Z,21.71
2024-05-09T12:19:14.267Z,21.53
2024-05-09T12:20:21.369Z,21.34
2024-05-09T12:21:16.196Z,21.45
2024-05-09T12:22:14.294Z,21.67
2024-05-09T12:23:14.099Z,21.73
2024-05-09T12:24:16.988Z,21.83
2024-05-09T12:25:15.152Z,21.71
2024-05-09T12:26:14.038Z,21.68
2024-05-09T12:27:14.083Z,21.55
2024-05-09T12:28:14.060Z,21.37
2024-05-09T12:29:14.013Z,21.30
2024-05-09T12:30:20.723Z,21.26
2024-05-09T12:31:16.109Z,21.31
2024-05-09T12:32:13.969Z,21.28
2024-05-09T12:33:14.392Z,21.13
2024-05-09T12:34:14.105Z,21.13
2024-05-09T12:35:13.935Z,21.33
2024-05-09T12:36:13.863Z,21.22
2024-05-09T12:37:14.081Z,21.36
2024-05-09T12:38:13.877Z,21.11
2024-05-09T12:39:13.854Z,21.26
2024-05-09T12:40:22.488Z,21.13
2024-05-09T12:41:15.831Z,21.09
2024-05-09T12:42:25.885Z,21.05
2024-05-09T12:43:15.816Z,21.15
2024-05-09T12:44:13.735Z,21.03
2024-05-09T12:45:13.743Z,21.08
2024-05-09T12:46:13.753Z,21.26
2024-05-09T12:47:13.730Z,21.28
2024-05-09T12:48:13.920Z,21.31
2024-05-09T12:49:15.660Z,21.38
2024-05-09T12:50:21.971Z,21.52
2024-05-09T12:51:15.626Z,21.43
2024-05-09T12:52:14.720Z,21.31
2024-05-09T12:53:46.021Z,21.42
2024-05-09T12:54:13.606Z,21.46
2024-05-09T12:55:13.635Z,21.53
2024-05-09T12:56:13.548Z,21.48
2024-05-09T12:57:14.584Z,21.61
2024-05-09T12:58:13.638Z,21.63
2024-05-09T12:59:13.512Z,21.66